createdAt,value
2023-02-23T00:02:07.536Z,19.27
2023-02-23T00:04:42.281Z,17.83
2023-02-23T00:07:13.351Z,17.10
2023-02-23T00:12:17.478Z,16.92
2023-02-23T00:14:48.415Z,16.90
2023-02-23T00:17:20.374Z,15.95
2023-02-23T00:19:53.759Z,18.88
2023-02-23T00:22:24.852Z,13.65
2023-02-23T00:27:28.902Z,14.32
2023-02-23T00:30:01.421Z,15.43
2023-02-23T00:32:32.860Z,13.10
2023-02-23T00:35:10.144Z,14.75
2023-02-23T00:37:41.370Z,12.98
2023-02-23T00:42:48.413Z,12.38
2023-02-23T00:45:20.624Z,14.85
2023-02-23T00:47:51.775Z,15.45
2023-02-23T00:50:25.381Z,14.95
2023-02-23T00:52:59.734Z,15.07
2023-02-23T00:55:30.505Z,10.35
2023-02-23T00:58:01.518Z,9.70
2023-02-23T01:00:32.994Z,12.82
2023-02-23T01:03:04.034Z,10.30
2023-02-23T01:08:11.192Z,11.88
2023-02-23T01:10:52.471Z,9.88
2023-02-23T01:13:23.965Z,10.75
2023-02-23T01:15:55.186Z,10.45
2023-02-23T01:18:29.585Z,10.25
2023-02-23T01:21:03.006Z,11.45
2023-02-23T01:23:35.453Z,13.02
2023-02-23T01:26:06.202Z,10.18
2023-02-23T01:28:37.342Z,14.57
2023-02-23T01:33:42.573Z,10.68
2023-02-23T01:38:47.103Z,9.68
2023-02-23T01:41:18.193Z,12.32
2023-02-23T01:44:01.603Z,9.90
2023-02-23T01:46:35.053Z,12.82
2023-02-23T01:49:07.439Z,9.35
2023-02-23T01:51:43.860Z,9.55
2023-02-23T01:54:19.209Z,7.90
2023-02-23T01:56:58.539Z,9.13
2023-02-23T01:59:35.774Z,10.00
2023-02-23T02:02:07.832Z,8.52
2023-02-23T02:04:44.788Z,11.90
2023-02-23T02:07:20.624Z,10.75
2023-02-23T02:10:25.140Z,9.85
2023-02-23T02:12:59.208Z,12.00
2023-02-23T02:15:38.943Z,10.23
2023-02-23T02:18:23.777Z,11.57
2023-02-23T02:21:18.396Z,10.63
2023-02-23T02:24:31.281Z,12.43
2023-02-23T02:27:15.084Z,8.95
2023-02-23T02:30:16.851Z,10.57
2023-02-23T02:33:14.824Z,11.10
2023-02-23T02:36:10.501Z,11.55
2023-02-23T02:38:54.261Z,9.73
2023-02-23T02:41:42.503Z,10.50
2023-02-23T02:44:20.875Z,11.40
2023-02-23T02:46:57.652Z,10.63
2023-02-23T02:49:33.513Z,10.65
2023-02-23T02:52:08.610Z,12.05
2023-02-23T02:54:47.997Z,14.40
2023-02-23T02:57:21.609Z,13.02
2023-02-23T03:00:06.378Z,13.15
2023-02-23T03:02:52.428Z,10.25
2023-02-23T03:05:39.624Z,12.48
2023-02-23T03:08:32.570Z,15.95
2023-02-23T03:11:21.828Z,11.45
2023-02-23T03:14:17.540Z,15.75
2023-02-23T03:17:08.051Z,12.20
2023-02-23T03:19:56.133Z,9.30
2023-02-23T03:22:45.734Z,15.18
2023-02-23T03:25:34.131Z,13.35
2023-02-23T03:28:27.268Z,12.90
2023-02-23T03:31:18.897Z,15.40
2023-02-23T03:34:18.497Z,11.07
2023-02-23T03:37:06.260Z,14.70
2023-02-23T03:39:56.387Z,12.95
2023-02-23T03:42:44.831Z,15.07
2023-02-23T03:45:34.575Z,11.73
2023-02-23T03:48:20.672Z,13.18
2023-02-23T03:51:08.749Z,16.63
2023-02-23T03:53:58.940Z,12.40
2023-02-23T03:56:44.267Z,14.18
2023-02-23T03:59:29.484Z,13.05
2023-02-23T04:02:16.612Z,12.57
2023-02-23T04:05:02.006Z,14.55
2023-02-23T04:07:46.737Z,22.13
2023-02-23T04:10:30.093Z,15.30
2023-02-23T04:13:15.308Z,14.35
2023-02-23T04:15:51.128Z,19.10
2023-02-23T04:18:28.153Z,17.30
2023-02-23T04:20:59.329Z,18.85
2023-02-23T04:23:31.224Z,19.83
2023-02-23T04:26:02.231Z,12.07
2023-02-23T04:28:33.997Z,13.00
2023-02-23T04:31:04.749Z,12.70
2023-02-23T04:33:38.367Z,11.40
2023-02-23T04:36:09.607Z,12.70
2023-02-23T04:38:40.723Z,11.90
2023-02-23T04:41:11.452Z,9.95
2023-02-23T04:43:42.654Z,13.20
2023-02-23T04:46:13.449Z,14.75
2023-02-23T04:48:47.719Z,15.30
2023-02-23T04:51:18.704Z,10.75
2023-02-23T04:53:49.877Z,9.77
2023-02-23T04:56:20.583Z,10.15
2023-02-23T04:58:51.708Z,9.40
2023-02-23T05:03:57.074Z,9.98
2023-02-23T05:06:27.857Z,13.88
2023-02-23T05:08:58.945Z,11.73
2023-02-23T05:14:00.576Z,11.93
2023-02-23T05:16:31.974Z,11.55
2023-02-23T05:19:05.608Z,11.35
2023-02-23T05:21:36.408Z,12.82
2023-02-23T05:24:08.075Z,11.57
2023-02-23T05:26:38.918Z,10.00
2023-02-23T05:29:09.947Z,11.35
2023-02-23T05:31:40.828Z,11.52
2023-02-23T05:34:14.638Z,16.83
2023-02-23T05:36:45.330Z,19.58
2023-02-23T05:39:16.403Z,29.80
2023-02-23T05:41:47.122Z,66.80
2023-02-23T05:44:18.246Z,61.40
2023-02-23T05:46:50.058Z,214.05
2023-02-23T05:49:24.232Z,136.00
2023-02-23T05:51:54.971Z,33.25
2023-02-23T05:54:26.080Z,39.50
2023-02-23T05:59:27.616Z,19.92
2023-02-23T06:01:58.390Z,25.67
2023-02-23T06:04:32.056Z,18.98
2023-02-23T06:07:02.820Z,14.77
2023-02-23T06:09:34.068Z,15.23
2023-02-23T06:12:05.412Z,14.13
2023-02-23T06:14:36.901Z,14.18
2023-02-23T06:17:08.033Z,14.98
2023-02-23T06:19:41.808Z,16.63
2023-02-23T06:22:13.182Z,19.23
2023-02-23T06:24:44.745Z,16.73
2023-02-23T06:27:17.052Z,16.00
2023-02-23T06:29:48.140Z,14.45
2023-02-23T06:32:18.977Z,14.15
2023-02-23T06:34:57.698Z,13.07
2023-02-23T06:37:29.295Z,14.02
2023-02-23T06:40:00.935Z,16.25
2023-02-23T06:42:31.604Z,12.55
2023-02-23T06:45:02.665Z,12.65
2023-02-23T06:47:33.815Z,13.95
2023-02-23T06:50:08.374Z,16.08
2023-02-23T06:52:40.988Z,15.07
2023-02-23T06:55:13.418Z,20.38
2023-02-23T06:57:44.513Z,15.57
2023-02-23T07:00:17.991Z,14.68
2023-02-23T07:02:48.656Z,13.55
2023-02-23T07:05:22.458Z,15.25
2023-02-23T07:07:53.616Z,13.77
2023-02-23T07:10:24.831Z,13.63
2023-02-23T07:12:57.367Z,19.02
2023-02-23T07:15:28.591Z,12.10
2023-02-23T07:20:33.138Z,16.35
2023-02-23T07:23:04.932Z,17.20
2023-02-23T07:25:35.983Z,11.90
2023-02-23T07:28:07.368Z,214.48
2023-02-23T07:30:39.066Z,64.85
2023-02-23T07:33:09.962Z,24.13
2023-02-23T07:35:45.078Z,23.13
2023-02-23T07:38:15.940Z,16.17
2023-02-23T07:40:47.715Z,13.15
2023-02-23T07:43:21.304Z,11.88
2023-02-23T07:45:52.665Z,11.35
2023-02-23T07:48:24.671Z,10.85
2023-02-23T07:50:58.475Z,11.38
2023-02-23T07:53:30.220Z,15.65
2023-02-23T07:56:01.819Z,14.23
2023-02-23T07:58:33.582Z,14.43
2023-02-23T08:01:04.878Z,15.20
2023-02-23T08:03:35.962Z,16.02
2023-02-23T08:06:10.096Z,19.45
2023-02-23T08:08:40.910Z,10.68
2023-02-23T08:11:12.125Z,16.48
2023-02-23T08:16:15.117Z,13.63
2023-02-23T08:18:46.754Z,21.25
2023-02-23T08:21:20.673Z,16.13
2023-02-23T08:23:51.584Z,18.23
2023-02-23T08:26:24.410Z,14.25
2023-02-23T08:28:55.454Z,16.35
2023-02-23T08:31:27.854Z,11.27
2023-02-23T08:33:58.703Z,11.27
2023-02-23T08:36:32.401Z,11.68
2023-02-23T08:39:03.671Z,11.93
2023-02-23T08:41:34.818Z,10.52
2023-02-23T08:44:05.528Z,13.10
2023-02-23T08:46:36.637Z,10.93
2023-02-23T08:49:10.975Z,8.75
2023-02-23T08:51:47.221Z,11.30
2023-02-23T08:54:18.143Z,8.93
2023-02-23T08:56:49.245Z,11.88
2023-02-23T09:01:50.862Z,8.73
2023-02-23T09:06:54.991Z,7.22
2023-02-23T09:09:25.935Z,14.77
2023-02-23T09:11:59.008Z,8.05
2023-02-23T09:14:30.475Z,10.98
2023-02-23T09:17:01.586Z,10.18
2023-02-23T09:19:32.256Z,13.20
2023-02-23T09:22:06.031Z,10.40
2023-02-23T09:24:36.734Z,17.98
2023-02-23T09:27:08.072Z,16.08
2023-02-23T09:29:41.762Z,11.18
2023-02-23T09:32:13.423Z,18.23
2023-02-23T09:34:44.240Z,15.48
2023-02-23T09:37:18.528Z,13.88
2023-02-23T09:39:49.655Z,9.43
2023-02-23T09:42:33.692Z,9.82
2023-02-23T09:45:18.247Z,10.43
2023-02-23T09:47:59.723Z,10.10
2023-02-23T09:50:33.057Z,8.95
2023-02-23T09:53:10.681Z,9.90
2023-02-23T09:55:44.047Z,10.80
2023-02-23T09:58:23.991Z,9.80
2023-02-23T10:01:19.575Z,12.05
2023-02-23T10:03:57.133Z,13.73
2023-02-23T10:06:27.903Z,11.30
2023-02-23T10:09:14.803Z,10.27
2023-02-23T10:11:52.647Z,10.63
2023-02-23T10:14:35.640Z,11.80
2023-02-23T10:17:18.178Z,9.77
2023-02-23T10:19:59.086Z,10.63
2023-02-23T10:22:31.170Z,10.75
2023-02-23T10:25:09.060Z,19.85
2023-02-23T10:27:45.098Z,12.10
2023-02-23T10:30:22.422Z,80.97
2023-02-23T10:33:00.616Z,50.58
2023-02-23T10:35:33.911Z,24.90
2023-02-23T10:38:05.412Z,20.83
2023-02-23T10:40:39.081Z,17.92
2023-02-23T10:43:10.744Z,13.85
2023-02-23T10:45:48.132Z,17.45
2023-02-23T10:48:21.834Z,14.32
2023-02-23T10:50:56.225Z,11.48
2023-02-23T10:53:29.574Z,11.80
2023-02-23T10:56:11.047Z,14.65
2023-02-23T11:01:19.772Z,12.30
2023-02-23T11:04:05.516Z,12.98
2023-02-23T11:06:40.398Z,10.82
2023-02-23T11:09:41.341Z,11.52
2023-02-23T11:12:25.524Z,16.55
2023-02-23T11:17:32.198Z,14.45
2023-02-23T11:20:05.754Z,14.98
2023-02-23T11:22:41.989Z,14.18
2023-02-23T11:25:23.672Z,14.82
2023-02-23T11:27:57.579Z,13.77
2023-02-23T11:30:34.609Z,15.35
2023-02-23T11:33:12.442Z,33.85
2023-02-23T11:35:43.173Z,49.60
2023-02-23T11:38:27.229Z,68.10
2023-02-23T11:41:05.353Z,100.07
2023-02-23T11:43:39.087Z,29.65
2023-02-23T11:46:11.839Z,43.00
2023-02-23T11:48:56.210Z,29.70
2023-02-23T11:51:32.935Z,21.98
2023-02-23T11:54:05.748Z,13.55
2023-02-23T11:56:38.533Z,55.53
2023-02-23T11:59:21.248Z,101.38
2023-02-23T12:01:56.360Z,28.70
2023-02-23T12:04:32.007Z,35.78
2023-02-23T12:07:44.494Z,30.45
2023-02-23T12:10:23.929Z,64.85
2023-02-23T12:13:01.195Z,17.63
2023-02-23T12:15:43.540Z,69.40
2023-02-23T12:18:24.756Z,41.60
2023-02-23T12:21:00.958Z,75.70
2023-02-23T12:23:37.437Z,16.98
2023-02-23T12:26:13.992Z,12.10
2023-02-23T12:28:51.082Z,50.22
2023-02-23T12:31:33.189Z,21.30
2023-02-23T12:34:12.886Z,13.48
2023-02-23T12:36:49.539Z,46.17
2023-02-23T12:39:28.094Z,42.15
2023-02-23T12:42:07.457Z,48.35
2023-02-23T12:44:44.592Z,24.48
2023-02-23T12:47:27.843Z,16.80
2023-02-23T12:50:13.547Z,14.88
2023-02-23T12:52:50.598Z,17.73
2023-02-23T12:55:27.461Z,50.42
2023-02-23T12:58:04.936Z,49.80
2023-02-23T13:00:50.479Z,30.73
2023-02-23T13:03:48.414Z,65.68
2023-02-23T13:06:30.639Z,52.75
2023-02-23T13:09:11.591Z,40.00
2023-02-23T13:11:59.977Z,22.20
2023-02-23T13:14:39.365Z,20.58
2023-02-23T13:17:28.704Z,53.10
2023-02-23T13:20:06.349Z,50.50
2023-02-23T13:22:43.718Z,38.47
2023-02-23T13:25:26.236Z,34.38
2023-02-23T13:28:01.769Z,53.83
2023-02-23T13:30:35.754Z,57.42
2023-02-23T13:33:17.124Z,45.13
2023-02-23T13:35:51.010Z,53.00
2023-02-23T13:38:26.866Z,52.13
2023-02-23T13:41:07.105Z,22.85
2023-02-23T13:43:47.544Z,25.33
2023-02-23T13:46:40.283Z,27.55
2023-02-23T13:49:25.041Z,23.45
2023-02-23T13:52:02.283Z,30.58
2023-02-23T13:54:36.808Z,25.13
2023-02-23T13:57:16.958Z,23.73
2023-02-23T13:59:49.762Z,29.60
2023-02-23T14:02:34.692Z,28.38
2023-02-23T14:05:08.724Z,30.88
2023-02-23T14:07:47.715Z,27.02
2023-02-23T14:10:24.044Z,20.25
2023-02-23T14:13:10.617Z,21.48
2023-02-23T14:15:49.468Z,28.10
2023-02-23T14:18:36.250Z,27.08
2023-02-23T14:21:15.984Z,21.73
2023-02-23T14:24:08.718Z,22.90
2023-02-23T14:26:45.655Z,17.65
2023-02-23T14:29:34.221Z,19.75
2023-02-23T14:32:27.607Z,15.48
2023-02-23T14:35:03.135Z,17.75
2023-02-23T14:37:37.883Z,15.40
2023-02-23T14:40:16.820Z,23.38
2023-02-23T14:42:52.593Z,19.05
2023-02-23T14:45:29.181Z,29.23
2023-02-23T14:48:02.661Z,21.35
2023-02-23T14:50:39.316Z,19.05
2023-02-23T14:53:16.752Z,13.95
2023-02-23T14:55:48.867Z,20.83
2023-02-23T14:58:27.177Z,30.50
2023-02-23T15:00:58.660Z,31.48
2023-02-23T15:03:30.613Z,21.33
2023-02-23T15:06:04.873Z,28.45
2023-02-23T15:08:41.211Z,20.55
2023-02-23T15:11:16.053Z,35.20
2023-02-23T15:13:52.693Z,30.17
2023-02-23T15:16:31.033Z,38.65
2023-02-23T15:19:04.328Z,30.55
2023-02-23T15:21:40.686Z,43.05
2023-02-23T15:24:16.894Z,38.13
2023-02-23T15:26:48.637Z,56.60
2023-02-23T15:29:21.452Z,44.15
2023-02-23T15:31:55.901Z,25.35
2023-02-23T15:34:30.746Z,30.17
2023-02-23T15:37:07.122Z,30.02
2023-02-23T15:39:41.437Z,26.92
2023-02-23T15:42:16.812Z,27.13
2023-02-23T15:44:48.309Z,25.08
2023-02-23T15:47:28.660Z,24.27
2023-02-23T15:50:11.673Z,28.50
2023-02-23T15:52:50.788Z,25.40
2023-02-23T15:55:26.808Z,48.90
2023-02-23T15:57:59.341Z,76.28
2023-02-23T16:00:35.735Z,57.65
2023-02-23T16:03:09.137Z,25.83
2023-02-23T16:05:47.126Z,40.60
2023-02-23T16:08:27.783Z,85.55
2023-02-23T16:11:07.441Z,54.03
2023-02-23T16:13:38.511Z,71.17
2023-02-23T16:16:11.931Z,69.20
2023-02-23T16:18:45.733Z,34.75
2023-02-23T16:21:21.588Z,52.50
2023-02-23T16:23:58.623Z,66.13
2023-02-23T16:26:32.728Z,46.95
2023-02-23T16:29:05.705Z,38.05
2023-02-23T16:31:47.470Z,39.13
2023-02-23T16:34:26.824Z,51.95
2023-02-23T16:37:02.519Z,55.55
2023-02-23T16:39:36.327Z,57.05
2023-02-23T16:42:07.206Z,54.95
2023-02-23T16:44:43.936Z,44.42
2023-02-23T16:47:39.198Z,38.08
2023-02-23T16:50:20.273Z,52.88
2023-02-23T16:52:54.737Z,56.33
2023-02-23T16:55:37.507Z,45.08
2023-02-23T16:58:13.211Z,49.53
2023-02-23T17:00:44.500Z,42.67
2023-02-23T17:05:52.194Z,98.78
2023-02-23T17:08:23.171Z,51.22
2023-02-23T17:10:58.433Z,35.92
2023-02-23T17:13:33.439Z,46.17
2023-02-23T17:16:07.184Z,42.33
2023-02-23T17:18:42.799Z,49.53
2023-02-23T17:21:24.054Z,45.53
2023-02-23T17:24:02.889Z,30.40
2023-02-23T17:26:36.594Z,40.33
2023-02-23T17:29:07.296Z,34.78
2023-02-23T17:31:39.949Z,37.25
2023-02-23T17:34:11.055Z,35.03
2023-02-23T17:36:42.714Z,36.80
2023-02-23T17:39:14.392Z,39.67
2023-02-23T17:41:48.307Z,37.13
2023-02-23T17:44:19.068Z,34.92
2023-02-23T17:46:50.155Z,34.08
2023-02-23T17:49:21.348Z,36.42
2023-02-23T17:51:52.778Z,35.08
2023-02-23T17:54:23.760Z,37.47
2023-02-23T17:56:58.097Z,34.15
2023-02-23T17:59:29.304Z,41.85
2023-02-23T18:02:01.253Z,40.47
2023-02-23T18:04:32.156Z,34.50
2023-02-23T18:07:03.324Z,37.95
2023-02-23T18:09:35.271Z,31.63
2023-02-23T18:12:09.835Z,29.02
2023-02-23T18:14:41.020Z,28.58
2023-02-23T18:17:12.654Z,36.13
2023-02-23T18:19:45.746Z,31.92
2023-02-23T18:22:18.149Z,39.05
2023-02-23T18:27:22.232Z,31.95
2023-02-23T18:29:53.334Z,29.35
2023-02-23T18:32:24.550Z,33.53
2023-02-23T18:34:55.388Z,32.33
2023-02-23T18:37:28.996Z,35.60
2023-02-23T18:40:00.409Z,36.88
2023-02-23T18:42:34.344Z,45.80
2023-02-23T18:45:05.040Z,33.90
2023-02-23T18:47:36.103Z,38.78
2023-02-23T18:50:07.560Z,36.95
2023-02-23T18:52:40.962Z,37.53
2023-02-23T18:55:12.263Z,49.03
2023-02-23T18:57:46.078Z,44.63
2023-02-23T19:00:18.962Z,51.75
2023-02-23T19:02:50.845Z,50.10
2023-02-23T19:05:22.410Z,47.90
2023-02-23T19:07:54.841Z,39.50
2023-02-23T19:10:28.889Z,52.60
2023-02-23T19:13:02.739Z,53.05
2023-02-23T19:15:33.917Z,45.10
2023-02-23T19:18:05.356Z,50.85
2023-02-23T19:20:36.639Z,59.58
2023-02-23T19:23:10.410Z,57.40
2023-02-23T19:25:41.853Z,59.92
2023-02-23T19:28:15.560Z,56.10
2023-02-23T19:30:49.579Z,55.35
2023-02-23T19:33:20.903Z,57.20
2023-02-23T19:35:51.696Z,60.63
2023-02-23T19:38:22.793Z,61.28
2023-02-23T19:40:53.926Z,58.25
2023-02-23T19:43:27.637Z,69.32
2023-02-23T19:45:58.414Z,82.32
2023-02-23T19:48:30.751Z,48.75
2023-02-23T19:51:01.934Z,45.75
2023-02-23T19:53:33.240Z,50.33
2023-02-23T19:58:37.803Z,40.47
2023-02-23T20:01:09.952Z,36.05
2023-02-23T20:03:43.672Z,43.47
2023-02-23T20:06:16.077Z,38.60
2023-02-23T20:08:48.554Z,46.05
2023-02-23T20:11:20.406Z,44.15
2023-02-23T20:13:54.322Z,42.70
2023-02-23T20:16:29.511Z,36.85
2023-02-23T20:19:02.217Z,33.63
2023-02-23T20:21:33.599Z,30.15
2023-02-23T20:24:06.208Z,37.22
2023-02-23T20:26:39.021Z,35.30
2023-02-23T20:29:18.145Z,35.70
2023-02-23T20:31:53.427Z,61.35
2023-02-23T20:34:26.993Z,60.15
2023-02-23T20:36:58.121Z,65.15
2023-02-23T20:39:29.830Z,44.60
2023-02-23T20:42:00.720Z,60.90
2023-02-23T20:44:35.255Z,50.08
2023-02-23T20:47:10.103Z,45.97
2023-02-23T20:49:42.482Z,40.50
2023-02-23T20:52:13.670Z,44.30
2023-02-23T20:54:44.775Z,44.08
2023-02-23T20:57:15.975Z,39.22
2023-02-23T20:59:50.024Z,50.88
2023-02-23T21:02:21.168Z,43.53
2023-02-23T21:04:53.063Z,47.83
2023-02-23T21:07:26.787Z,57.10
2023-02-23T21:09:59.549Z,40.72
2023-02-23T21:12:30.778Z,41.67
2023-02-23T21:15:05.426Z,40.75
2023-02-23T21:17:38.634Z,44.45
2023-02-23T21:20:13.032Z,50.72
2023-02-23T21:22:43.917Z,49.35
2023-02-23T21:25:15.479Z,43.97
2023-02-23T21:27:47.070Z,37.42
2023-02-23T21:30:23.104Z,42.40
2023-02-23T21:32:56.052Z,40.75
2023-02-23T21:35:28.520Z,53.58
2023-02-23T21:37:59.890Z,89.20
2023-02-23T21:40:31.105Z,75.88
2023-02-23T21:45:35.456Z,51.13
2023-02-23T21:48:06.745Z,53.92
2023-02-23T21:50:37.848Z,58.40
2023-02-23T21:53:09.616Z,54.30
2023-02-23T21:55:41.557Z,54.42
2023-02-23T21:58:12.330Z,45.22
2023-02-23T22:00:46.729Z,70.40
2023-02-23T22:03:17.562Z,49.85
2023-02-23T22:05:48.637Z,42.67
2023-02-23T22:08:19.813Z,47.13
2023-02-23T22:10:50.854Z,46.40
2023-02-23T22:13:21.904Z,48.03
2023-02-23T22:16:01.584Z,50.60
2023-02-23T22:18:32.677Z,48.58
2023-02-23T22:21:05.311Z,51.83
2023-02-23T22:23:37.423Z,52.33
2023-02-23T22:26:09.341Z,47.05
2023-02-23T22:28:40.285Z,52.67
2023-02-23T22:31:16.012Z,51.70
2023-02-23T22:33:47.277Z,52.58
2023-02-23T22:36:18.654Z,51.88
2023-02-23T22:38:49.915Z,54.28
2023-02-23T22:41:21.286Z,59.65
2023-02-23T22:43:52.605Z,55.15
2023-02-23T22:46:26.977Z,54.00
2023-02-23T22:48:58.654Z,60.30
2023-02-23T22:51:30.409Z,67.88
2023-02-23T22:54:01.175Z,64.93
2023-02-23T22:56:32.318Z,64.35
2023-02-23T22:59:06.584Z,70.80
2023-02-23T23:01:41.928Z,73.78
2023-02-23T23:04:15.076Z,64.32
2023-02-23T23:06:46.580Z,88.07
2023-02-23T23:09:18.742Z,88.63
2023-02-23T23:11:51.045Z,87.18
2023-02-23T23:14:23.448Z,83.80
2023-02-23T23:16:57.200Z,76.47
2023-02-23T23:19:29.456Z,64.00
2023-02-23T23:22:00.805Z,59.00
2023-02-23T23:24:31.900Z,64.93
2023-02-23T23:27:08.440Z,62.45
2023-02-23T23:29:39.779Z,54.25
2023-02-23T23:32:17.340Z,63.17
2023-02-23T23:34:50.573Z,57.92
2023-02-23T23:37:22.569Z,52.80
2023-02-23T23:39:59.420Z,58.00
2023-02-23T23:42:30.580Z,50.22
2023-02-23T23:45:02.198Z,55.15
2023-02-23T23:47:36.007Z,51.38
2023-02-23T23:50:10.921Z,52.85
2023-02-23T23:52:43.719Z,51.28
2023-02-23T23:55:19.239Z,46.67
2023-02-23T23:57:50.320Z,47.25
